sensor_id;sensor_type;location;lat;lon;timestamp;P1;durP1;ratioP1;P2;durP2;ratioP2
19828;SDS011;10075;50.924;4.396;2022-10-20T00:01:09;25.20;;;16.33;;
19828;SDS011;10075;50.924;4.396;2022-10-20T00:03:38;25.53;;;15.17;;
19828;SDS011;10075;50.924;4.396;2022-10-20T00:06:06;28.37;;;16.63;;
19828;SDS011;10075;50.924;4.396;2022-10-20T00:08:35;29.00;;;16.67;;
19828;SDS011;10075;50.924;4.396;2022-10-20T00:11:02;26.70;;;16.07;;
19828;SDS011;10075;50.924;4.396;2022-10-20T00:13:30;33.80;;;16.70;;
19828;SDS011;10075;50.924;4.396;2022-10-20T00:15:57;28.30;;;16.87;;
19828;SDS011;10075;50.924;4.396;2022-10-20T00:18:25;28.43;;;16.60;;
19828;SDS011;10075;50.924;4.396;2022-10-20T00:20:55;29.60;;;17.13;;
19828;SDS011;10075;50.924;4.396;2022-10-20T00:23:22;28.57;;;17.00;;
19828;SDS011;10075;50.924;4.396;2022-10-20T00:25:58;28.60;;;17.20;;
19828;SDS011;10075;50.924;4.396;2022-10-20T00:28:26;28.20;;;17.27;;
19828;SDS011;10075;50.924;4.396;2022-10-20T00:30:53;26.20;;;16.73;;
19828;SDS011;10075;50.924;4.396;2022-10-20T00:33:20;30.50;;;17.90;;
19828;SDS011;10075;50.924;4.396;2022-10-20T00:35:47;29.33;;;17.47;;
19828;SDS011;10075;50.924;4.396;2022-10-20T00:38:16;29.50;;;17.87;;
19828;SDS011;10075;50.924;4.396;2022-10-20T00:40:43;29.50;;;18.23;;
19828;SDS011;10075;50.924;4.396;2022-10-20T00:43:10;26.23;;;17.63;;
19828;SDS011;10075;50.924;4.396;2022-10-20T00:45:38;30.07;;;19.10;;
19828;SDS011;10075;50.924;4.396;2022-10-20T00:48:07;29.53;;;17.73;;
19828;SDS011;10075;50.924;4.396;2022-10-20T00:50:40;32.63;;;18.03;;
19828;SDS011;10075;50.924;4.396;2022-10-20T00:53:12;28.03;;;17.93;;
19828;SDS011;10075;50.924;4.396;2022-10-20T00:55:40;30.10;;;18.57;;
19828;SDS011;10075;50.924;4.396;2022-10-20T00:58:11;26.17;;;17.47;;
19828;SDS011;10075;50.924;4.396;2022-10-20T01:00:39;28.40;;;18.73;;
19828;SDS011;10075;50.924;4.396;2022-10-20T01:03:10;27.27;;;18.43;;
19828;SDS011;10075;50.924;4.396;2022-10-20T01:05:42;35.00;;;19.05;;
19828;SDS011;10075;50.924;4.396;2022-10-20T01:08:09;32.97;;;19.27;;
19828;SDS011;10075;50.924;4.396;2022-10-20T01:10:38;32.53;;;18.60;;
19828;SDS011;10075;50.924;4.396;2022-10-20T01:13:13;32.83;;;18.83;;
19828;SDS011;10075;50.924;4.396;2022-10-20T01:15:47;31.60;;;19.40;;
19828;SDS011;10075;50.924;4.396;2022-10-20T01:18:21;30.37;;;18.80;;
19828;SDS011;10075;50.924;4.396;2022-10-20T01:21:04;31.30;;;17.33;;
19828;SDS011;10075;50.924;4.396;2022-10-20T01:24:17;33.33;;;18.23;;
19828;SDS011;10075;50.924;4.396;2022-10-20T01:29:52;35.13;;;18.60;;
19828;SDS011;10075;50.924;4.396;2022-10-20T01:32:27;36.17;;;18.27;;
19828;SDS011;10075;50.924;4.396;2022-10-20T01:35:02;29.40;;;18.63;;
19828;SDS011;10075;50.924;4.396;2022-10-20T01:37:34;29.73;;;17.77;;
19828;SDS011;10075;50.924;4.396;2022-10-20T01:40:07;32.10;;;18.27;;
19828;SDS011;10075;50.924;4.396;2022-10-20T01:42:40;29.00;;;17.33;;
19828;SDS011;10075;50.924;4.396;2022-10-20T01:45:09;26.50;;;17.50;;
19828;SDS011;10075;50.924;4.396;2022-10-20T01:47:38;27.87;;;18.37;;
19828;SDS011;10075;50.924;4.396;2022-10-20T01:50:07;31.70;;;19.03;;
19828;SDS011;10075;50.924;4.396;2022-10-20T01:52:36;27.77;;;18.87;;
19828;SDS011;10075;50.924;4.396;2022-10-20T01:55:08;35.43;;;18.83;;
19828;SDS011;10075;50.924;4.396;2022-10-20T01:57:41;27.83;;;18.50;;
19828;SDS011;10075;50.924;4.396;2022-10-20T02:00:20;29.13;;;18.00;;
19828;SDS011;10075;50.924;4.396;2022-10-20T02:03:03;30.77;;;19.10;;
19828;SDS011;10075;50.924;4.396;2022-10-20T02:05:45;35.00;;;18.00;;
19828;SDS011;10075;50.924;4.396;2022-10-20T02:08:22;34.88;;;18.90;;
19828;SDS011;10075;50.924;4.396;2022-10-20T02:10:56;31.10;;;18.17;;
19828;SDS011;10075;50.924;4.396;2022-10-20T02:13:28;25.00;;;17.60;;
19828;SDS011;10075;50.924;4.396;2022-10-20T02:15:57;28.87;;;19.00;;
19828;SDS011;10075;50.924;4.396;2022-10-20T02:18:27;34.27;;;18.53;;
19828;SDS011;10075;50.924;4.396;2022-10-20T02:20:59;30.50;;;18.63;;
19828;SDS011;10075;50.924;4.396;2022-10-20T02:23:29;26.83;;;17.83;;
19828;SDS011;10075;50.924;4.396;2022-10-20T02:25:58;27.97;;;18.00;;
19828;SDS011;10075;50.924;4.396;2022-10-20T02:28:30;25.63;;;17.40;;
19828;SDS011;10075;50.924;4.396;2022-10-20T02:31:00;25.10;;;17.53;;
19828;SDS011;10075;50.924;4.396;2022-10-20T02:33:28;28.53;;;17.87;;
19828;SDS011;10075;50.924;4.396;2022-10-20T02:35:57;28.67;;;16.47;;
19828;SDS011;10075;50.924;4.396;2022-10-20T02:38:24;31.57;;;18.90;;
19828;SDS011;10075;50.924;4.396;2022-10-20T02:40:51;30.13;;;18.53;;
19828;SDS011;10075;50.924;4.396;2022-10-20T02:43:18;32.03;;;18.30;;
19828;SDS011;10075;50.924;4.396;2022-10-20T02:45:47;25.93;;;16.17;;
19828;SDS011;10075;50.924;4.396;2022-10-20T02:48:14;27.47;;;16.97;;
19828;SDS011;10075;50.924;4.396;2022-10-20T02:50:41;25.10;;;17.13;;
19828;SDS011;10075;50.924;4.396;2022-10-20T02:53:08;28.87;;;17.43;;
19828;SDS011;10075;50.924;4.396;2022-10-20T02:55:35;23.67;;;16.67;;
19828;SDS011;10075;50.924;4.396;2022-10-20T02:58:01;23.73;;;17.17;;
19828;SDS011;10075;50.924;4.396;2022-10-20T03:00:28;23.27;;;17.13;;
19828;SDS011;10075;50.924;4.396;2022-10-20T03:02:57;29.03;;;17.50;;
19828;SDS011;10075;50.924;4.396;2022-10-20T03:05:24;24.43;;;16.50;;
19828;SDS011;10075;50.924;4.396;2022-10-20T03:07:52;29.98;;;17.25;;
19828;SDS011;10075;50.924;4.396;2022-10-20T03:10:19;29.37;;;18.13;;
19828;SDS011;10075;50.924;4.396;2022-10-20T03:12:46;29.98;;;17.08;;
19828;SDS011;10075;50.924;4.396;2022-10-20T03:15:13;26.03;;;16.83;;
19828;SDS011;10075;50.924;4.396;2022-10-20T03:17:40;26.42;;;17.27;;
19828;SDS011;10075;50.924;4.396;2022-10-20T03:20:09;32.00;;;17.63;;
19828;SDS011;10075;50.924;4.396;2022-10-20T03:22:36;32.80;;;17.27;;
19828;SDS011;10075;50.924;4.396;2022-10-20T03:25:04;28.47;;;17.43;;
19828;SDS011;10075;50.924;4.396;2022-10-20T03:27:31;24.35;;;16.38;;
19828;SDS011;10075;50.924;4.396;2022-10-20T03:29:58;29.03;;;16.53;;
19828;SDS011;10075;50.924;4.396;2022-10-20T03:32:25;29.80;;;16.53;;
19828;SDS011;10075;50.924;4.396;2022-10-20T03:34:52;29.20;;;16.10;;
19828;SDS011;10075;50.924;4.396;2022-10-20T03:37:20;30.60;;;17.17;;
19828;SDS011;10075;50.924;4.396;2022-10-20T03:39:47;24.23;;;16.45;;
19828;SDS011;10075;50.924;4.396;2022-10-20T03:42:14;27.37;;;16.47;;
19828;SDS011;10075;50.924;4.396;2022-10-20T03:44:41;28.43;;;16.27;;
19828;SDS011;10075;50.924;4.396;2022-10-20T03:47:10;26.53;;;16.60;;
19828;SDS011;10075;50.924;4.396;2022-10-20T03:49:37;25.10;;;16.70;;
19828;SDS011;10075;50.924;4.396;2022-10-20T03:52:04;28.57;;;15.97;;
19828;SDS011;10075;50.924;4.396;2022-10-20T03:54:33;27.67;;;16.40;;
19828;SDS011;10075;50.924;4.396;2022-10-20T03:57:00;32.00;;;16.23;;
19828;SDS011;10075;50.924;4.396;2022-10-20T03:59:27;27.50;;;15.93;;
19828;SDS011;10075;50.924;4.396;2022-10-20T04:01:54;27.37;;;16.53;;
19828;SDS011;10075;50.924;4.396;2022-10-20T04:04:21;32.83;;;16.77;;
19828;SDS011;10075;50.924;4.396;2022-10-20T04:06:48;27.63;;;17.97;;
19828;SDS011;10075;50.924;4.396;2022-10-20T04:09:15;34.10;;;17.73;;
19828;SDS011;10075;50.924;4.396;2022-10-20T04:11:43;28.07;;;18.17;;
19828;SDS011;10075;50.924;4.396;2022-10-20T04:14:11;27.40;;;17.90;;
19828;SDS011;10075;50.924;4.396;2022-10-20T04:16:38;31.70;;;17.30;;
19828;SDS011;10075;50.924;4.396;2022-10-20T04:19:06;29.90;;;18.37;;
19828;SDS011;10075;50.924;4.396;2022-10-20T04:21:33;34.15;;;18.88;;
19828;SDS011;10075;50.924;4.396;2022-10-20T04:23:59;26.47;;;16.97;;
19828;SDS011;10075;50.924;4.396;2022-10-20T04:26:26;28.03;;;18.13;;
19828;SDS011;10075;50.924;4.396;2022-10-20T04:28:56;35.00;;;20.00;;
19828;SDS011;10075;50.924;4.396;2022-10-20T04:31:22;36.37;;;19.37;;
19828;SDS011;10075;50.924;4.396;2022-10-20T04:33:49;30.57;;;18.13;;
19828;SDS011;10075;50.924;4.396;2022-10-20T04:36:16;32.00;;;18.20;;
19828;SDS011;10075;50.924;4.396;2022-10-20T04:38:43;33.03;;;18.33;;
19828;SDS011;10075;50.924;4.396;2022-10-20T04:41:10;31.33;;;17.57;;
19828;SDS011;10075;50.924;4.396;2022-10-20T04:43:37;27.70;;;18.33;;
19828;SDS011;10075;50.924;4.396;2022-10-20T04:46:05;31.00;;;18.13;;
19828;SDS011;10075;50.924;4.396;2022-10-20T04:48:32;30.43;;;18.03;;
19828;SDS011;10075;50.924;4.396;2022-10-20T04:51:00;30.80;;;17.43;;
19828;SDS011;10075;50.924;4.396;2022-10-20T04:53:29;30.00;;;18.42;;
19828;SDS011;10075;50.924;4.396;2022-10-20T04:55:56;27.60;;;16.90;;
19828;SDS011;10075;50.924;4.396;2022-10-20T04:58:23;27.90;;;16.87;;
19828;SDS011;10075;50.924;4.396;2022-10-20T05:00:51;30.97;;;18.30;;
19828;SDS011;10075;50.924;4.396;2022-10-20T05:03:19;32.23;;;18.30;;
19828;SDS011;10075;50.924;4.396;2022-10-20T05:05:46;31.50;;;17.80;;
19828;SDS011;10075;50.924;4.396;2022-10-20T05:08:13;29.23;;;17.53;;
19828;SDS011;10075;50.924;4.396;2022-10-20T05:10:40;31.63;;;18.43;;
19828;SDS011;10075;50.924;4.396;2022-10-20T05:13:07;27.67;;;17.87;;
19828;SDS011;10075;50.924;4.396;2022-10-20T05:15:34;26.52;;;17.30;;
19828;SDS011;10075;50.924;4.396;2022-10-20T05:18:02;25.57;;;16.73;;
19828;SDS011;10075;50.924;4.396;2022-10-20T05:20:30;30.53;;;16.90;;
19828;SDS011;10075;50.924;4.396;2022-10-20T05:22:57;26.13;;;16.43;;
19828;SDS011;10075;50.924;4.396;2022-10-20T05:25:24;24.53;;;15.97;;
19828;SDS011;10075;50.924;4.396;2022-10-20T05:27:51;30.60;;;17.53;;
19828;SDS011;10075;50.924;4.396;2022-10-20T05:30:18;27.40;;;15.97;;
19828;SDS011;10075;50.924;4.396;2022-10-20T05:32:45;28.30;;;17.83;;
19828;SDS011;10075;50.924;4.396;2022-10-20T05:35:12;24.97;;;16.70;;
19828;SDS011;10075;50.924;4.396;2022-10-20T05:37:41;28.60;;;16.70;;
19828;SDS011;10075;50.924;4.396;2022-10-20T05:40:08;26.67;;;15.07;;
19828;SDS011;10075;50.924;4.396;2022-10-20T05:42:35;28.17;;;15.75;;
19828;SDS011;10075;50.924;4.396;2022-10-20T05:45:03;24.67;;;15.68;;
19828;SDS011;10075;50.924;4.396;2022-10-20T05:47:31;23.50;;;15.50;;
19828;SDS011;10075;50.924;4.396;2022-10-20T05:49:58;24.70;;;15.70;;
19828;SDS011;10075;50.924;4.396;2022-10-20T05:52:25;22.47;;;14.87;;
19828;SDS011;10075;50.924;4.396;2022-10-20T05:54:56;21.63;;;15.33;;
19828;SDS011;10075;50.924;4.396;2022-10-20T05:57:24;22.98;;;14.35;;
19828;SDS011;10075;50.924;4.396;2022-10-20T05:59:51;22.93;;;15.33;;
19828;SDS011;10075;50.924;4.396;2022-10-20T06:02:18;21.37;;;14.90;;
19828;SDS011;10075;50.924;4.396;2022-10-20T06:04:46;22.20;;;15.27;;
19828;SDS011;10075;50.924;4.396;2022-10-20T06:07:13;24.20;;;15.20;;
19828;SDS011;10075;50.924;4.396;2022-10-20T06:09:40;22.33;;;14.37;;
19828;SDS011;10075;50.924;4.396;2022-10-20T06:12:08;24.73;;;15.18;;
19828;SDS011;10075;50.924;4.396;2022-10-20T06:14:35;22.10;;;13.27;;
19828;SDS011;10075;50.924;4.396;2022-10-20T06:17:02;23.92;;;15.10;;
19828;SDS011;10075;50.924;4.396;2022-10-20T06:19:29;21.75;;;13.10;;
19828;SDS011;10075;50.924;4.396;2022-10-20T06:21:56;21.77;;;12.77;;
19828;SDS011;10075;50.924;4.396;2022-10-20T06:24:23;21.92;;;14.23;;
19828;SDS011;10075;50.924;4.396;2022-10-20T06:26:50;25.15;;;14.27;;
19828;SDS011;10075;50.924;4.396;2022-10-20T06:29:19;21.65;;;13.60;;
19828;SDS011;10075;50.924;4.396;2022-10-20T06:31:46;21.08;;;14.35;;
19828;SDS011;10075;50.924;4.396;2022-10-20T06:34:15;21.80;;;13.73;;
19828;SDS011;10075;50.924;4.396;2022-10-20T06:36:43;21.90;;;13.48;;
19828;SDS011;10075;50.924;4.396;2022-10-20T06:39:12;22.15;;;13.95;;
19828;SDS011;10075;50.924;4.396;2022-10-20T06:41:40;19.60;;;11.95;;
19828;SDS011;10075;50.924;4.396;2022-10-20T06:44:07;21.52;;;12.60;;
19828;SDS011;10075;50.924;4.396;2022-10-20T06:46:36;21.95;;;13.05;;
19828;SDS011;10075;50.924;4.396;2022-10-20T06:49:04;21.17;;;11.90;;
19828;SDS011;10075;50.924;4.396;2022-10-20T06:51:33;23.83;;;14.02;;
19828;SDS011;10075;50.924;4.396;2022-10-20T06:54:01;25.10;;;12.55;;
19828;SDS011;10075;50.924;4.396;2022-10-20T06:56:29;21.85;;;12.43;;
19828;SDS011;10075;50.924;4.396;2022-10-20T06:58:58;21.85;;;13.32;;
19828;SDS011;10075;50.924;4.396;2022-10-20T07:01:27;23.60;;;13.50;;
19828;SDS011;10075;50.924;4.396;2022-10-20T07:03:57;19.42;;;11.73;;
19828;SDS011;10075;50.924;4.396;2022-10-20T07:06:26;24.67;;;12.85;;
19828;SDS011;10075;50.924;4.396;2022-10-20T07:08:54;19.70;;;12.20;;
19828;SDS011;10075;50.924;4.396;2022-10-20T07:11:22;15.70;;;10.68;;
19828;SDS011;10075;50.924;4.396;2022-10-20T07:13:51;17.40;;;10.93;;
19828;SDS011;10075;50.924;4.396;2022-10-20T07:16:19;18.77;;;11.10;;
19828;SDS011;10075;50.924;4.396;2022-10-20T07:18:48;15.38;;;11.30;;
19828;SDS011;10075;50.924;4.396;2022-10-20T07:21:17;18.33;;;10.32;;
19828;SDS011;10075;50.924;4.396;2022-10-20T07:23:46;16.05;;;9.95;;
19828;SDS011;10075;50.924;4.396;2022-10-20T07:26:14;19.45;;;9.75;;
19828;SDS011;10075;50.924;4.396;2022-10-20T07:28:43;16.80;;;9.18;;
19828;SDS011;10075;50.924;4.396;2022-10-20T07:31:12;17.05;;;9.25;;
19828;SDS011;10075;50.924;4.396;2022-10-20T07:33:41;17.45;;;10.18;;
19828;SDS011;10075;50.924;4.396;2022-10-20T07:36:12;14.50;;;8.98;;
19828;SDS011;10075;50.924;4.396;2022-10-20T07:38:42;17.17;;;9.15;;
19828;SDS011;10075;50.924;4.396;2022-10-20T07:41:10;13.43;;;8.38;;
19828;SDS011;10075;50.924;4.396;2022-10-20T07:43:38;11.95;;;8.18;;
19828;SDS011;10075;50.924;4.396;2022-10-20T07:46:05;19.15;;;9.82;;
19828;SDS011;10075;50.924;4.396;2022-10-20T07:48:33;14.45;;;8.85;;
19828;SDS011;10075;50.924;4.396;2022-10-20T07:51:16;11.73;;;7.93;;
19828;SDS011;10075;50.924;4.396;2022-10-20T07:53:51;13.98;;;9.05;;
19828;SDS011;10075;50.924;4.396;2022-10-20T07:56:21;18.92;;;8.27;;
19828;SDS011;10075;50.924;4.396;2022-10-20T07:58:48;17.95;;;8.98;;
19828;SDS011;10075;50.924;4.396;2022-10-20T08:01:15;14.07;;;8.93;;
19828;SDS011;10075;50.924;4.396;2022-10-20T08:03:42;14.15;;;8.05;;
19828;SDS011;10075;50.924;4.396;2022-10-20T08:06:09;14.48;;;8.02;;
19828;SDS011;10075;50.924;4.396;2022-10-20T08:08:36;13.77;;;7.85;;
19828;SDS011;10075;50.924;4.396;2022-10-20T08:11:05;14.52;;;7.85;;
19828;SDS011;10075;50.924;4.396;2022-10-20T08:13:33;16.02;;;8.00;;
19828;SDS011;10075;50.924;4.396;2022-10-20T08:16:00;14.77;;;7.90;;
19828;SDS011;10075;50.924;4.396;2022-10-20T08:18:27;13.05;;;7.65;;
19828;SDS011;10075;50.924;4.396;2022-10-20T08:21:04;17.73;;;7.72;;
19828;SDS011;10075;50.924;4.396;2022-10-20T08:23:31;17.80;;;8.18;;
19828;SDS011;10075;50.924;4.396;2022-10-20T08:25:58;16.40;;;7.95;;
19828;SDS011;10075;50.924;4.396;2022-10-20T08:28:27;14.90;;;8.13;;
19828;SDS011;10075;50.924;4.396;2022-10-20T08:30:54;16.50;;;9.40;;
19828;SDS011;10075;50.924;4.396;2022-10-20T08:33:21;18.45;;;8.80;;
19828;SDS011;10075;50.924;4.396;2022-10-20T08:35:48;15.13;;;8.90;;
19828;SDS011;10075;50.924;4.396;2022-10-20T08:38:15;19.15;;;9.15;;
19828;SDS011;10075;50.924;4.396;2022-10-20T08:40:42;19.05;;;9.90;;
19828;SDS011;10075;50.924;4.396;2022-10-20T08:43:11;18.90;;;9.45;;
19828;SDS011;10075;50.924;4.396;2022-10-20T08:45:45;20.45;;;9.88;;
19828;SDS011;10075;50.924;4.396;2022-10-20T08:48:14;16.73;;;9.25;;
19828;SDS011;10075;50.924;4.396;2022-10-20T08:50:44;15.60;;;10.05;;
19828;SDS011;10075;50.924;4.396;2022-10-20T08:53:13;16.63;;;10.60;;
19828;SDS011;10075;50.924;4.396;2022-10-20T08:55:40;24.13;;;9.63;;
19828;SDS011;10075;50.924;4.396;2022-10-20T08:58:10;24.45;;;10.35;;
19828;SDS011;10075;50.924;4.396;2022-10-20T09:00:39;19.70;;;10.05;;
19828;SDS011;10075;50.924;4.396;2022-10-20T09:03:13;22.75;;;12.02;;
19828;SDS011;10075;50.924;4.396;2022-10-20T09:05:43;20.98;;;10.65;;
19828;SDS011;10075;50.924;4.396;2022-10-20T09:08:14;21.77;;;10.57;;
19828;SDS011;10075;50.924;4.396;2022-10-20T09:10:43;19.00;;;11.38;;
19828;SDS011;10075;50.924;4.396;2022-10-20T09:13:16;16.25;;;11.00;;
19828;SDS011;10075;50.924;4.396;2022-10-20T09:15:47;20.50;;;11.32;;
19828;SDS011;10075;50.924;4.396;2022-10-20T09:18:17;24.08;;;11.82;;
19828;SDS011;10075;50.924;4.396;2022-10-20T09:20:46;17.63;;;11.68;;
19828;SDS011;10075;50.924;4.396;2022-10-20T09:23:18;17.70;;;12.93;;
19828;SDS011;10075;50.924;4.396;2022-10-20T09:25:48;25.33;;;13.95;;
19828;SDS011;10075;50.924;4.396;2022-10-20T09:28:20;27.02;;;15.38;;
19828;SDS011;10075;50.924;4.396;2022-10-20T09:30:49;25.70;;;15.32;;
19828;SDS011;10075;50.924;4.396;2022-10-20T09:33:21;30.88;;;15.40;;
19828;SDS011;10075;50.924;4.396;2022-10-20T09:35:53;24.50;;;14.82;;
19828;SDS011;10075;50.924;4.396;2022-10-20T09:38:28;27.33;;;16.02;;
19828;SDS011;10075;50.924;4.396;2022-10-20T09:40:57;25.95;;;15.75;;
19828;SDS011;10075;50.924;4.396;2022-10-20T09:43:34;27.50;;;16.30;;
19828;SDS011;10075;50.924;4.396;2022-10-20T09:46:05;23.45;;;15.27;;
19828;SDS011;10075;50.924;4.396;2022-10-20T09:48:36;24.95;;;14.80;;
19828;SDS011;10075;50.924;4.396;2022-10-20T09:51:05;28.15;;;15.60;;
19828;SDS011;10075;50.924;4.396;2022-10-20T09:53:39;27.42;;;15.07;;
19828;SDS011;10075;50.924;4.396;2022-10-20T09:56:22;29.00;;;14.43;;
19828;SDS011;10075;50.924;4.396;2022-10-20T09:58:50;26.33;;;13.95;;
19828;SDS011;10075;50.924;4.396;2022-10-20T10:01:18;28.42;;;14.88;;
19828;SDS011;10075;50.924;4.396;2022-10-20T10:03:47;23.38;;;13.90;;
19828;SDS011;10075;50.924;4.396;2022-10-20T10:06:20;21.27;;;14.13;;
19828;SDS011;10075;50.924;4.396;2022-10-20T10:08:53;25.38;;;15.32;;
19828;SDS011;10075;50.924;4.396;2022-10-20T10:11:22;24.15;;;13.77;;
19828;SDS011;10075;50.924;4.396;2022-10-20T10:13:52;23.10;;;13.05;;
19828;SDS011;10075;50.924;4.396;2022-10-20T10:16:19;22.67;;;13.40;;
19828;SDS011;10075;50.924;4.396;2022-10-20T10:18:55;26.58;;;13.25;;
19828;SDS011;10075;50.924;4.396;2022-10-20T10:21:26;26.45;;;13.57;;
19828;SDS011;10075;50.924;4.396;2022-10-20T10:23:54;16.98;;;11.75;;
19828;SDS011;10075;50.924;4.396;2022-10-20T10:26:42;20.20;;;11.35;;
19828;SDS011;10075;50.924;4.396;2022-10-20T10:29:15;22.52;;;11.18;;
19828;SDS011;10075;50.924;4.396;2022-10-20T10:31:45;15.13;;;10.38;;
19828;SDS011;10075;50.924;4.396;2022-10-20T10:34:34;18.30;;;11.68;;
19828;SDS011;10075;50.924;4.396;2022-10-20T10:37:09;18.67;;;10.82;;
19828;SDS011;10075;50.924;4.396;2022-10-20T10:39:39;19.70;;;10.20;;
19828;SDS011;10075;50.924;4.396;2022-10-20T10:45:06;17.67;;;9.23;;
19828;SDS011;10075;50.924;4.396;2022-10-20T10:47:53;19.58;;;9.43;;
19828;SDS011;10075;50.924;4.396;2022-10-20T10:53:33;17.60;;;8.98;;
19828;SDS011;10075;50.924;4.396;2022-10-20T10:56:12;14.90;;;9.38;;
19828;SDS011;10075;50.924;4.396;2022-10-20T10:58:50;20.98;;;9.48;;
19828;SDS011;10075;50.924;4.396;2022-10-20T11:01:25;12.90;;;9.23;;
19828;SDS011;10075;50.924;4.396;2022-10-20T11:04:12;16.90;;;9.05;;
19828;SDS011;10075;50.924;4.396;2022-10-20T11:07:15;16.50;;;9.20;;
19828;SDS011;10075;50.924;4.396;2022-10-20T11:09:58;15.95;;;9.63;;
19828;SDS011;10075;50.924;4.396;2022-10-20T11:12:38;17.70;;;9.40;;
19828;SDS011;10075;50.924;4.396;2022-10-20T11:15:19;17.23;;;9.02;;
19828;SDS011;10075;50.924;4.396;2022-10-20T11:18:01;15.80;;;8.65;;
19828;SDS011;10075;50.924;4.396;2022-10-20T11:20:33;16.27;;;8.90;;
19828;SDS011;10075;50.924;4.396;2022-10-20T11:23:12;19.30;;;8.30;;
19828;SDS011;10075;50.924;4.396;2022-10-20T11:26:01;14.95;;;8.20;;
19828;SDS011;10075;50.924;4.396;2022-10-20T11:28:38;14.02;;;7.93;;
19828;SDS011;10075;50.924;4.396;2022-10-20T11:31:11;13.30;;;7.10;;
19828;SDS011;10075;50.924;4.396;2022-10-20T11:33:46;13.73;;;8.02;;
19828;SDS011;10075;50.924;4.396;2022-10-20T11:36:25;12.20;;;7.35;;
19828;SDS011;10075;50.924;4.396;2022-10-20T11:38:59;16.05;;;7.95;;
19828;SDS011;10075;50.924;4.396;2022-10-20T11:41:29;16.00;;;7.35;;
19828;SDS011;10075;50.924;4.396;2022-10-20T11:44:02;14.55;;;7.80;;
19828;SDS011;10075;50.924;4.396;2022-10-20T11:46:33;15.48;;;7.18;;
19828;SDS011;10075;50.924;4.396;2022-10-20T11:49:05;17.20;;;6.60;;
19828;SDS011;10075;50.924;4.396;2022-10-20T11:54:46;12.13;;;6.07;;
19828;SDS011;10075;50.924;4.396;2022-10-20T11:57:31;15.18;;;6.70;;
19828;SDS011;10075;50.924;4.396;2022-10-20T12:00:12;13.82;;;5.50;;
19828;SDS011;10075;50.924;4.396;2022-10-20T12:02:56;12.23;;;5.80;;
19828;SDS011;10075;50.924;4.396;2022-10-20T12:05:59;17.30;;;5.80;;
19828;SDS011;10075;50.924;4.396;2022-10-20T12:09:10;12.35;;;4.78;;
19828;SDS011;10075;50.924;4.396;2022-10-20T12:11:59;11.05;;;5.30;;
19828;SDS011;10075;50.924;4.396;2022-10-20T12:14:31;11.63;;;4.40;;
19828;SDS011;10075;50.924;4.396;2022-10-20T12:17:03;12.18;;;4.72;;
19828;SDS011;10075;50.924;4.396;2022-10-20T12:22:56;9.68;;;3.75;;
19828;SDS011;10075;50.924;4.396;2022-10-20T12:25:36;8.20;;;3.72;;
19828;SDS011;10075;50.924;4.396;2022-10-20T12:31:08;12.02;;;4.43;;
19828;SDS011;10075;50.924;4.396;2022-10-20T12:33:36;10.32;;;4.22;;
19828;SDS011;10075;50.924;4.396;2022-10-20T12:36:25;10.52;;;4.13;;
19828;SDS011;10075;50.924;4.396;2022-10-20T12:39:13;7.55;;;3.67;;
19828;SDS011;10075;50.924;4.396;2022-10-20T12:41:56;9.02;;;3.72;;
19828;SDS011;10075;50.924;4.396;2022-10-20T12:44:27;8.85;;;4.38;;
19828;SDS011;10075;50.924;4.396;2022-10-20T12:46:57;12.98;;;3.80;;
19828;SDS011;10075;50.924;4.396;2022-10-20T12:49:30;12.98;;;3.83;;
19828;SDS011;10075;50.924;4.396;2022-10-20T12:52:00;8.07;;;3.33;;
19828;SDS011;10075;50.924;4.396;2022-10-20T12:54:31;6.55;;;3.83;;
19828;SDS011;10075;50.924;4.396;2022-10-20T12:57:01;7.50;;;3.63;;
19828;SDS011;10075;50.924;4.396;2022-10-20T12:59:36;4.50;;;2.90;;
19828;SDS011;10075;50.924;4.396;2022-10-20T13:05:23;5.65;;;2.38;;
19828;SDS011;10075;50.924;4.396;2022-10-20T13:08:19;8.77;;;3.08;;
19828;SDS011;10075;50.924;4.396;2022-10-20T13:10:48;6.13;;;2.67;;
19828;SDS011;10075;50.924;4.396;2022-10-20T13:16:24;7.40;;;2.38;;
19828;SDS011;10075;50.924;4.396;2022-10-20T13:18:56;9.45;;;2.60;;
19828;SDS011;10075;50.924;4.396;2022-10-20T13:21:30;5.80;;;2.55;;
19828;SDS011;10075;50.924;4.396;2022-10-20T13:24:00;8.50;;;2.63;;
19828;SDS011;10075;50.924;4.396;2022-10-20T13:26:30;8.50;;;2.53;;
19828;SDS011;10075;50.924;4.396;2022-10-20T13:29:02;9.10;;;2.45;;
19828;SDS011;10075;50.924;4.396;2022-10-20T13:31:40;9.80;;;2.90;;
19828;SDS011;10075;50.924;4.396;2022-10-20T13:34:14;4.32;;;2.38;;
19828;SDS011;10075;50.924;4.396;2022-10-20T13:36:58;6.65;;;2.47;;
19828;SDS011;10075;50.924;4.396;2022-10-20T13:39:37;4.80;;;2.05;;
19828;SDS011;10075;50.924;4.396;2022-10-20T13:42:14;8.20;;;2.80;;
19828;SDS011;10075;50.924;4.396;2022-10-20T13:44:55;4.72;;;2.35;;
19828;SDS011;10075;50.924;4.396;2022-10-20T13:47:34;6.00;;;2.25;;
19828;SDS011;10075;50.924;4.396;2022-10-20T13:50:12;7.90;;;2.33;;
19828;SDS011;10075;50.924;4.396;2022-10-20T13:52:43;6.78;;;2.30;;
19828;SDS011;10075;50.924;4.396;2022-10-20T13:55:15;4.72;;;2.15;;
19828;SDS011;10075;50.924;4.396;2022-10-20T13:57:46;5.28;;;2.45;;
19828;SDS011;10075;50.924;4.396;2022-10-20T14:00:19;8.52;;;2.20;;
19828;SDS011;10075;50.924;4.396;2022-10-20T14:02:54;4.18;;;1.95;;
19828;SDS011;10075;50.924;4.396;2022-10-20T14:05:25;6.63;;;2.38;;
19828;SDS011;10075;50.924;4.396;2022-10-20T14:07:53;11.88;;;2.83;;
19828;SDS011;10075;50.924;4.396;2022-10-20T14:10:22;6.82;;;2.50;;
19828;SDS011;10075;50.924;4.396;2022-10-20T14:12:51;5.47;;;2.22;;
19828;SDS011;10075;50.924;4.396;2022-10-20T14:15:22;6.47;;;2.35;;
19828;SDS011;10075;50.924;4.396;2022-10-20T14:17:58;4.43;;;2.30;;
19828;SDS011;10075;50.924;4.396;2022-10-20T14:20:27;6.80;;;2.03;;
19828;SDS011;10075;50.924;4.396;2022-10-20T14:22:56;8.20;;;2.47;;
19828;SDS011;10075;50.924;4.396;2022-10-20T14:25:25;4.97;;;1.75;;
19828;SDS011;10075;50.924;4.396;2022-10-20T14:27:53;7.57;;;2.13;;
19828;SDS011;10075;50.924;4.396;2022-10-20T14:30:21;7.38;;;2.28;;
19828;SDS011;10075;50.924;4.396;2022-10-20T14:32:50;4.07;;;1.70;;
19828;SDS011;10075;50.924;4.396;2022-10-20T14:35:24;5.95;;;2.00;;
19828;SDS011;10075;50.924;4.396;2022-10-20T14:37:57;5.97;;;2.10;;
19828;SDS011;10075;50.924;4.396;2022-10-20T14:40:27;8.85;;;2.35;;
19828;SDS011;10075;50.924;4.396;2022-10-20T14:42:58;4.93;;;2.40;;
19828;SDS011;10075;50.924;4.396;2022-10-20T14:45:31;6.90;;;1.98;;
19828;SDS011;10075;50.924;4.396;2022-10-20T14:47:58;4.85;;;1.90;;
19828;SDS011;10075;50.924;4.396;2022-10-20T14:50:32;7.93;;;2.40;;
19828;SDS011;10075;50.924;4.396;2022-10-20T14:55:54;5.10;;;1.65;;
19828;SDS011;10075;50.924;4.396;2022-10-20T14:58:28;7.10;;;2.40;;
19828;SDS011;10075;50.924;4.396;2022-10-20T15:01:13;7.90;;;2.63;;
19828;SDS011;10075;50.924;4.396;2022-10-20T15:03:46;6.35;;;2.47;;
19828;SDS011;10075;50.924;4.396;2022-10-20T15:06:30;7.00;;;2.55;;
19828;SDS011;10075;50.924;4.396;2022-10-20T15:08:57;9.50;;;2.15;;
19828;SDS011;10075;50.924;4.396;2022-10-20T15:11:26;6.95;;;2.03;;
19828;SDS011;10075;50.924;4.396;2022-10-20T15:13:55;5.07;;;2.00;;
19828;SDS011;10075;50.924;4.396;2022-10-20T15:16:38;3.97;;;1.80;;
19828;SDS011;10075;50.924;4.396;2022-10-20T15:19:11;5.40;;;2.13;;